createdAt,value
2017-08-28T00:01:17.123Z,6.80
2017-08-28T00:03:45.381Z,8.73
2017-08-28T00:06:13.625Z,8.33
2017-08-28T00:08:41.885Z,9.40
2017-08-28T00:11:10.126Z,6.23
2017-08-28T00:13:38.384Z,9.83
2017-08-28T00:16:06.627Z,8.20
2017-08-28T00:18:34.884Z,6.97
2017-08-28T00:21:03.124Z,7.20
2017-08-28T00:23:31.390Z,7.80
2017-08-28T00:25:59.636Z,7.30
2017-08-28T00:28:27.892Z,6.70
2017-08-28T00:30:56.919Z,6.30
2017-08-28T00:33:25.174Z,6.90
2017-08-28T00:35:54.277Z,7.57
2017-08-28T00:38:22.553Z,8.00
2017-08-28T00:40:50.808Z,7.00
2017-08-28T00:43:19.067Z,6.40
2017-08-28T00:45:47.305Z,6.27
2017-08-28T00:48:16.544Z,6.53
2017-08-28T00:50:44.787Z,6.57
2017-08-28T00:53:13.823Z,6.27
2017-08-28T00:55:42.054Z,7.77
2017-08-28T00:58:10.369Z,7.00
2017-08-28T01:00:38.621Z,8.70
2017-08-28T01:03:06.908Z,7.37
2017-08-28T01:05:35.154Z,9.07
2017-08-28T01:08:03.403Z,6.27
2017-08-28T01:10:31.660Z,7.13
2017-08-28T01:12:59.910Z,9.60
2017-08-28T01:15:28.168Z,7.03
2017-08-28T01:17:56.413Z,9.67
2017-08-28T01:20:24.664Z,7.60
2017-08-28T01:22:53.676Z,6.40
2017-08-28T01:25:22.723Z,10.00
2017-08-28T01:27:50.966Z,6.80
2017-08-28T01:30:19.228Z,7.87
2017-08-28T01:32:48.246Z,8.17
2017-08-28T01:35:16.507Z,8.40
2017-08-28T01:37:44.767Z,8.07
2017-08-28T01:40:13.032Z,8.33
2017-08-28T01:42:41.394Z,7.80
2017-08-28T01:45:09.682Z,7.10
2017-08-28T01:47:37.915Z,7.10
2017-08-28T01:50:06.174Z,9.73
2017-08-28T01:52:34.411Z,7.67
2017-08-28T01:55:02.671Z,6.60
2017-08-28T01:57:30.911Z,6.77
2017-08-28T01:59:59.241Z,7.53
2017-08-28T02:02:27.477Z,7.20
2017-08-28T02:04:55.728Z,8.83
2017-08-28T02:07:23.998Z,6.93
2017-08-28T02:09:52.258Z,6.30
2017-08-28T02:12:20.512Z,6.40
2017-08-28T02:14:48.770Z,10.80
2017-08-28T02:17:17.035Z,6.53
2017-08-28T02:19:45.278Z,7.07
2017-08-28T02:22:13.544Z,8.63
2017-08-28T02:24:42.541Z,7.70
2017-08-28T02:27:11.595Z,8.73
2017-08-28T02:29:39.816Z,7.47
2017-08-28T02:32:08.849Z,7.53
2017-08-28T02:34:37.083Z,8.03
2017-08-28T02:37:05.333Z,9.50
2017-08-28T02:39:33.579Z,8.10
2017-08-28T02:42:01.833Z,7.50
2017-08-28T02:44:30.103Z,7.30
2017-08-28T02:46:58.364Z,8.67
2017-08-28T02:49:26.663Z,8.37
2017-08-28T02:51:54.929Z,7.63
2017-08-28T02:54:23.163Z,7.13
2017-08-28T02:56:51.426Z,8.00
2017-08-28T02:59:20.422Z,7.33
2017-08-28T03:01:48.698Z,9.50
2017-08-28T03:04:16.948Z,8.33
2017-08-28T03:06:45.224Z,8.30
2017-08-28T03:09:13.476Z,8.00
2017-08-28T03:11:41.734Z,9.30
2017-08-28T03:14:10.761Z,8.77
2017-08-28T03:16:39.015Z,8.00
2017-08-28T03:19:07.274Z,12.30
2017-08-28T03:21:36.691Z,8.10
2017-08-28T03:24:04.971Z,7.77
2017-08-28T03:26:33.227Z,8.70
2017-08-28T03:29:01.474Z,8.43
2017-08-28T03:31:29.762Z,8.13
2017-08-28T03:33:58.026Z,9.70
2017-08-28T03:36:26.258Z,7.73
2017-08-28T03:38:54.515Z,8.43
2017-08-28T03:41:22.755Z,9.50
2017-08-28T03:43:51.079Z,8.93
2017-08-28T03:46:19.324Z,8.27
2017-08-28T03:48:47.576Z,8.80
2017-08-28T03:51:15.821Z,8.70
2017-08-28T03:53:44.088Z,9.50
2017-08-28T03:56:12.351Z,10.10
2017-08-28T03:58:40.606Z,9.20
2017-08-28T04:01:08.851Z,8.93
2017-08-28T04:03:37.228Z,8.90
2017-08-28T04:06:05.452Z,8.73
2017-08-28T04:08:33.798Z,8.93
2017-08-28T04:11:02.014Z,7.47
2017-08-28T04:13:30.288Z,10.13
2017-08-28T04:15:59.296Z,8.57
2017-08-28T04:18:28.523Z,8.70
2017-08-28T04:20:56.769Z,7.70
2017-08-28T04:23:25.077Z,9.17
2017-08-28T04:25:53.323Z,11.33
2017-08-28T04:28:21.571Z,7.83
2017-08-28T04:30:49.810Z,7.70
2017-08-28T04:33:18.090Z,8.57
2017-08-28T04:35:46.335Z,7.50
2017-08-28T04:38:14.619Z,9.00
2017-08-28T04:40:42.865Z,7.97
2017-08-28T04:43:11.113Z,8.93
2017-08-28T04:45:39.388Z,12.23
2017-08-28T04:48:07.633Z,10.07
2017-08-28T04:50:36.018Z,8.13
2017-08-28T04:53:04.243Z,7.20
2017-08-28T04:55:32.490Z,7.97
2017-08-28T04:58:01.518Z,7.60
2017-08-28T05:00:30.535Z,8.07
2017-08-28T05:02:58.794Z,9.43
2017-08-28T05:05:27.054Z,8.80
2017-08-28T05:07:56.070Z,7.70
2017-08-28T05:10:24.363Z,11.53
2017-08-28T05:12:52.605Z,12.30
2017-08-28T05:15:21.647Z,11.13
2017-08-28T05:17:49.902Z,11.20
2017-08-28T05:20:18.194Z,11.40
2017-08-28T05:22:46.430Z,8.13
2017-08-28T05:25:14.695Z,7.20
2017-08-28T05:27:42.944Z,8.57
2017-08-28T05:30:11.652Z,7.50
2017-08-28T05:32:41.054Z,7.07
2017-08-28T05:35:09.336Z,9.17
2017-08-28T05:37:37.589Z,7.30
2017-08-28T05:40:06.604Z,6.87
2017-08-28T05:42:34.857Z,8.03
2017-08-28T05:45:03.114Z,11.20
2017-08-28T05:47:31.432Z,7.10
2017-08-28T05:49:59.974Z,8.80
2017-08-28T05:52:28.195Z,8.53
2017-08-28T05:54:56.439Z,7.80
2017-08-28T05:57:24.710Z,8.50
2017-08-28T05:59:52.967Z,9.10
2017-08-28T06:02:21.252Z,11.17
2017-08-28T06:04:49.483Z,7.90
2017-08-28T06:07:17.752Z,12.20
2017-08-28T06:09:46.772Z,11.23
2017-08-28T06:12:15.032Z,7.53
2017-08-28T06:14:43.270Z,11.70
2017-08-28T06:17:11.539Z,8.30
2017-08-28T06:19:39.780Z,7.80
2017-08-28T06:22:08.837Z,7.03
2017-08-28T06:24:37.091Z,9.33
2017-08-28T06:27:05.350Z,7.60
2017-08-28T06:29:33.600Z,7.57
2017-08-28T06:32:01.850Z,5.83
2017-08-28T06:34:30.103Z,6.57
2017-08-28T06:36:58.414Z,8.03
2017-08-28T06:39:26.655Z,10.83
2017-08-28T06:41:55.719Z,6.40
2017-08-28T06:44:24.708Z,6.77
2017-08-28T06:46:52.982Z,6.23
2017-08-28T06:49:21.264Z,6.40
2017-08-28T06:51:49.575Z,6.37
2017-08-28T06:54:17.839Z,6.70
2017-08-28T06:56:46.495Z,6.10
2017-08-28T06:59:14.738Z,6.43
2017-08-28T07:01:43.010Z,6.63
2017-08-28T07:04:11.262Z,6.90
2017-08-28T07:06:39.511Z,7.20
2017-08-28T07:09:07.775Z,7.57
2017-08-28T07:11:36.024Z,7.73
2017-08-28T07:14:04.550Z,6.90
2017-08-28T07:16:32.813Z,7.03
2017-08-28T07:19:01.074Z,6.40
2017-08-28T07:21:29.318Z,5.50
2017-08-28T07:23:57.589Z,6.27
2017-08-28T07:26:25.849Z,7.00
2017-08-28T07:28:54.146Z,5.90
2017-08-28T07:31:22.378Z,8.20
2017-08-28T07:33:50.737Z,8.67
2017-08-28T07:36:18.980Z,5.20
2017-08-28T07:38:47.246Z,5.70
2017-08-28T07:41:15.502Z,6.10
2017-08-28T07:43:43.761Z,7.13
2017-08-28T07:46:12.001Z,6.70
2017-08-28T07:48:40.277Z,5.97
2017-08-28T07:51:08.516Z,6.13
2017-08-28T07:53:36.823Z,5.43
2017-08-28T07:56:05.029Z,7.93
2017-08-28T07:58:33.284Z,5.27
2017-08-28T08:01:02.310Z,5.83
2017-08-28T08:03:31.410Z,6.60
2017-08-28T08:05:59.739Z,5.37
2017-08-28T08:08:28.006Z,5.80
2017-08-28T08:10:56.285Z,5.13
2017-08-28T08:13:24.559Z,6.37
2017-08-28T08:15:52.959Z,7.30
2017-08-28T08:18:21.864Z,5.43
2017-08-28T08:20:51.826Z,5.57
2017-08-28T08:23:20.773Z,6.13
2017-08-28T08:25:49.374Z,6.80
2017-08-28T08:28:17.773Z,6.00
2017-08-28T08:30:46.228Z,7.67
2017-08-28T08:33:14.683Z,6.57
2017-08-28T08:35:43.795Z,8.53
2017-08-28T08:38:12.098Z,8.40
2017-08-28T08:40:40.472Z,5.03
2017-08-28T08:43:09.589Z,6.00
2017-08-28T08:45:37.930Z,7.00
2017-08-28T08:48:06.558Z,7.87
2017-08-28T08:50:34.796Z,9.07
2017-08-28T08:53:03.041Z,5.90
2017-08-28T08:55:31.300Z,6.37
2017-08-28T08:58:00.150Z,8.80
2017-08-28T09:00:28.989Z,6.07
2017-08-28T09:02:57.785Z,6.77
2017-08-28T09:05:26.131Z,6.00
2017-08-28T09:07:54.371Z,6.53
2017-08-28T09:10:22.653Z,5.30
2017-08-28T09:12:51.656Z,9.10
2017-08-28T09:15:20.680Z,7.07
2017-08-28T09:17:48.946Z,5.67
2017-08-28T09:20:17.197Z,6.80
2017-08-28T09:22:45.454Z,5.93
2017-08-28T09:25:13.689Z,6.10
2017-08-28T09:27:41.947Z,6.33
2017-08-28T09:30:10.182Z,5.80
2017-08-28T09:32:38.440Z,5.53
2017-08-28T09:35:06.685Z,5.10
2017-08-28T09:37:35.725Z,7.10
2017-08-28T09:40:03.967Z,6.40
2017-08-28T09:42:32.987Z,6.50
2017-08-28T09:45:01.246Z,6.20
2017-08-28T09:47:29.498Z,7.30
2017-08-28T09:49:57.742Z,6.47
2017-08-28T09:52:26.031Z,9.33
2017-08-28T09:54:54.270Z,6.60
2017-08-28T09:57:23.300Z,8.03
2017-08-28T09:59:51.553Z,7.70
2017-08-28T10:02:20.581Z,6.37
2017-08-28T10:04:48.822Z,6.53
2017-08-28T10:07:17.088Z,8.17
2017-08-28T10:09:46.247Z,8.17
2017-08-28T10:12:14.516Z,7.47
2017-08-28T10:14:42.783Z,6.90
2017-08-28T10:17:11.799Z,7.60
2017-08-28T10:19:40.062Z,7.77
2017-08-28T10:22:09.088Z,7.43
2017-08-28T10:24:37.347Z,7.87
2017-08-28T10:27:08.969Z,7.57
2017-08-28T10:29:37.248Z,7.00
2017-08-28T10:32:05.511Z,6.77
2017-08-28T10:34:33.768Z,7.80
2017-08-28T10:37:02.015Z,7.10
2017-08-28T10:39:30.283Z,10.10
2017-08-28T10:41:58.529Z,7.53
2017-08-28T10:44:26.804Z,6.50
2017-08-28T10:46:55.049Z,8.87
2017-08-28T10:49:23.302Z,7.30
2017-08-28T10:51:51.543Z,6.97
2017-08-28T10:54:20.096Z,7.90
2017-08-28T10:56:48.349Z,7.00
2017-08-28T10:59:16.590Z,9.10
2017-08-28T11:01:44.830Z,8.37
2017-08-28T11:04:13.102Z,8.30
2017-08-28T11:06:41.347Z,8.73
2017-08-28T11:09:09.610Z,9.30
2017-08-28T11:11:37.863Z,10.17
2017-08-28T11:14:06.133Z,10.73
2017-08-28T11:16:34.408Z,10.57
2017-08-28T11:19:02.665Z,10.77
2017-08-28T11:21:30.944Z,11.20
2017-08-28T11:23:59.219Z,11.43
2017-08-28T11:26:27.466Z,9.20
2017-08-28T11:28:55.710Z,9.33
2017-08-28T11:31:23.980Z,12.37
2017-08-28T11:33:52.234Z,10.87
2017-08-28T11:36:20.494Z,12.40
2017-08-28T11:38:48.747Z,9.20
2017-08-28T11:41:17.013Z,11.20
2017-08-28T11:43:45.279Z,14.77
2017-08-28T11:46:14.312Z,14.83
2017-08-28T11:48:42.570Z,12.63
2017-08-28T11:51:10.839Z,13.67
2017-08-28T11:53:39.095Z,13.57
2017-08-28T11:56:07.369Z,14.00
2017-08-28T11:58:35.632Z,13.87
2017-08-28T12:01:03.903Z,14.00
2017-08-28T12:03:32.150Z,10.40
2017-08-28T12:06:00.411Z,10.30
2017-08-28T12:08:28.651Z,10.10
2017-08-28T12:10:56.911Z,8.73
2017-08-28T12:13:25.162Z,12.23
2017-08-28T12:15:54.237Z,13.43
2017-08-28T12:18:22.484Z,14.60
2017-08-28T12:20:50.767Z,13.70
2017-08-28T12:23:19.023Z,10.10
2017-08-28T12:25:47.282Z,10.80
2017-08-28T12:28:16.310Z,13.20
2017-08-28T12:30:44.623Z,9.23
2017-08-28T12:33:12.891Z,11.30
2017-08-28T12:35:41.158Z,10.60
2017-08-28T12:38:09.431Z,12.63
2017-08-28T12:40:37.694Z,9.90
2017-08-28T12:43:05.975Z,10.43
2017-08-28T12:45:34.224Z,12.13
2017-08-28T12:48:02.490Z,9.80
2017-08-28T12:50:30.731Z,8.33
2017-08-28T12:52:58.990Z,9.40
2017-08-28T12:55:28.001Z,10.00
2017-08-28T12:57:56.268Z,10.97
2017-08-28T13:00:25.285Z,10.10
2017-08-28T13:02:53.552Z,9.70
2017-08-28T13:05:21.797Z,9.13
2017-08-28T13:07:50.047Z,10.30
2017-08-28T13:10:18.291Z,8.30
2017-08-28T13:12:48.724Z,9.50
2017-08-28T13:15:16.950Z,9.30
2017-08-28T13:17:45.259Z,8.40
2017-08-28T13:20:13.547Z,8.57
2017-08-28T13:22:41.838Z,8.20
2017-08-28T13:25:10.087Z,8.90
2017-08-28T13:27:38.346Z,9.17
2017-08-28T13:30:06.594Z,8.53
2017-08-28T13:32:34.867Z,8.70
2017-08-28T13:35:03.112Z,8.43
2017-08-28T13:37:31.378Z,10.20
2017-08-28T13:39:59.631Z,10.33
2017-08-28T13:42:28.673Z,9.50
2017-08-28T13:44:56.930Z,8.97
2017-08-28T13:47:25.181Z,8.40
2017-08-28T13:49:55.483Z,9.50
2017-08-28T13:52:23.765Z,9.73
2017-08-28T13:54:52.057Z,10.43
2017-08-28T13:57:21.070Z,8.20
2017-08-28T13:59:49.339Z,10.03
2017-08-28T14:02:18.360Z,8.80
2017-08-28T14:04:46.636Z,9.13
2017-08-28T14:07:14.886Z,9.03
2017-08-28T14:09:43.167Z,8.70
2017-08-28T14:12:11.414Z,12.00
2017-08-28T14:14:39.671Z,9.70
2017-08-28T14:17:07.922Z,9.40
2017-08-28T14:19:36.206Z,10.60
2017-08-28T14:22:04.467Z,9.43
2017-08-28T14:24:32.730Z,8.73
2017-08-28T14:27:00.987Z,8.70
2017-08-28T14:29:29.229Z,9.50
2017-08-28T14:31:57.507Z,9.07
2017-08-28T14:34:26.546Z,10.07
2017-08-28T14:36:54.799Z,9.80
2017-08-28T14:39:23.060Z,9.87
2017-08-28T14:41:51.307Z,9.03
2017-08-28T14:44:19.627Z,8.90
2017-08-28T14:46:47.883Z,10.40
2017-08-28T14:49:16.158Z,9.80
2017-08-28T14:51:44.439Z,10.23
2017-08-28T14:54:12.702Z,10.50
2017-08-28T14:56:40.965Z,9.30
2017-08-28T14:59:09.216Z,9.57
2017-08-28T15:01:38.252Z,9.83
2017-08-28T15:04:06.539Z,8.47
2017-08-28T15:06:34.798Z,9.97
2017-08-28T15:09:03.051Z,9.63
2017-08-28T15:11:31.327Z,10.00
2017-08-28T15:13:59.596Z,12.70
2017-08-28T15:16:27.858Z,9.47
2017-08-28T15:18:56.102Z,9.00
2017-08-28T15:21:24.358Z,9.67
2017-08-28T15:23:52.648Z,11.30
2017-08-28T15:26:20.908Z,11.00
2017-08-28T15:28:50.700Z,9.30
2017-08-28T15:31:19.793Z,9.20
2017-08-28T15:33:48.137Z,9.60
2017-08-28T15:36:16.477Z,8.33
2017-08-28T15:38:45.961Z,8.30
2017-08-28T15:41:15.031Z,8.63
2017-08-28T15:43:43.291Z,9.07
2017-08-28T15:46:11.560Z,8.83
2017-08-28T15:48:39.809Z,8.73
2017-08-28T15:51:08.068Z,8.43
2017-08-28T15:53:36.323Z,8.83
2017-08-28T15:56:04.578Z,8.30
2017-08-28T15:58:32.855Z,9.93
2017-08-28T16:01:01.125Z,7.67
2017-08-28T16:03:29.398Z,11.23
2017-08-28T16:05:58.202Z,7.53
2017-08-28T16:08:26.496Z,8.63
2017-08-28T16:10:55.341Z,9.17
2017-08-28T16:13:23.606Z,8.57
2017-08-28T16:15:51.867Z,9.13
2017-08-28T16:18:20.163Z,8.73
2017-08-28T16:20:48.414Z,8.60
2017-08-28T16:23:16.701Z,14.70
2017-08-28T16:25:45.552Z,9.10
2017-08-28T16:28:13.811Z,9.80
2017-08-28T16:30:42.090Z,8.17
2017-08-28T16:33:10.335Z,8.47
2017-08-28T16:35:38.574Z,9.33
2017-08-28T16:38:06.848Z,9.27
2017-08-28T16:40:35.123Z,8.13
2017-08-28T16:43:03.383Z,8.07
2017-08-28T16:45:31.675Z,8.07
2017-08-28T16:47:59.948Z,8.80
2017-08-28T16:50:28.195Z,8.40
2017-08-28T16:52:56.489Z,9.20
2017-08-28T16:55:24.762Z,9.00
2017-08-28T16:57:53.017Z,8.30
2017-08-28T17:00:21.246Z,8.53
2017-08-28T17:02:49.507Z,8.90
2017-08-28T17:05:17.755Z,8.57
2017-08-28T17:07:46.025Z,8.20
2017-08-28T17:10:14.304Z,8.10
2017-08-28T17:12:42.567Z,9.43
2017-08-28T17:15:10.813Z,9.43
2017-08-28T17:17:39.095Z,9.93
2017-08-28T17:20:07.343Z,11.40
2017-08-28T17:22:41.377Z,11.70
2017-08-28T17:25:09.625Z,8.93
2017-08-28T17:27:37.882Z,12.33
2017-08-28T17:30:06.146Z,8.93
2017-08-28T17:32:34.402Z,8.57
2017-08-28T17:35:02.672Z,9.60
2017-08-28T17:37:30.944Z,8.63
2017-08-28T17:39:59.208Z,10.13
2017-08-28T17:42:27.458Z,10.43
2017-08-28T17:44:55.714Z,9.77
2017-08-28T17:47:23.968Z,10.07
2017-08-28T17:49:52.239Z,8.70
2017-08-28T17:52:20.497Z,8.00
2017-08-28T17:54:48.759Z,9.27
2017-08-28T17:57:17.849Z,7.70
2017-08-28T17:59:46.138Z,8.27
2017-08-28T18:02:14.427Z,7.60
2017-08-28T18:04:42.684Z,8.70
2017-08-28T18:07:10.926Z,6.70
2017-08-28T18:09:39.979Z,7.17
2017-08-28T18:12:08.214Z,8.13
2017-08-28T18:14:36.492Z,6.70
2017-08-28T18:17:05.505Z,6.47
2017-08-28T18:19:33.762Z,6.83
2017-08-28T18:22:02.002Z,7.30
2017-08-28T18:24:30.279Z,8.60
2017-08-28T18:26:58.539Z,10.40
2017-08-28T18:29:26.843Z,7.03
2017-08-28T18:31:55.083Z,7.53
2017-08-28T18:34:23.398Z,7.10
2017-08-28T18:36:51.640Z,7.83
2017-08-28T18:39:20.202Z,7.10
2017-08-28T18:41:48.868Z,8.83
2017-08-28T18:44:17.128Z,11.23
2017-08-28T18:46:45.386Z,8.97
2017-08-28T18:49:13.633Z,10.20
2017-08-28T18:54:52.526Z,11.60
2017-08-28T18:57:20.778Z,11.23
2017-08-28T18:59:49.016Z,12.80
2017-08-28T19:02:18.040Z,11.37
2017-08-28T19:04:46.288Z,11.23
2017-08-28T19:07:14.578Z,11.13
2017-08-28T19:09:42.830Z,12.83
2017-08-28T19:12:11.114Z,12.00
2017-08-28T19:14:39.366Z,11.17
2017-08-28T19:17:07.614Z,13.37
2017-08-28T19:19:35.845Z,10.77
2017-08-28T19:22:04.100Z,11.63
2017-08-28T19:24:32.354Z,13.17
2017-08-28T19:27:00.614Z,11.50
2017-08-28T19:29:28.856Z,12.60
2017-08-28T19:31:57.121Z,10.27
2017-08-28T19:34:27.414Z,10.83
2017-08-28T19:36:55.823Z,10.90
2017-08-28T19:39:24.068Z,14.87
2017-08-28T19:41:52.325Z,11.73
2017-08-28T19:44:20.558Z,11.60
2017-08-28T19:46:49.580Z,11.50
2017-08-28T19:49:17.813Z,10.87
2017-08-28T19:51:46.059Z,11.73
2017-08-28T19:54:14.300Z,10.47
2017-08-28T19:56:42.556Z,11.90
2017-08-28T19:59:10.809Z,11.03
2017-08-28T20:01:40.980Z,11.70
2017-08-28T20:04:09.261Z,10.67
2017-08-28T20:06:37.536Z,12.67
2017-08-28T20:09:05.777Z,10.20
2017-08-28T20:11:34.782Z,12.30
2017-08-28T20:14:03.037Z,10.40
2017-08-28T20:16:31.280Z,11.97
2017-08-28T20:18:59.537Z,10.13
2017-08-28T20:21:27.768Z,10.10
2017-08-28T20:23:56.781Z,9.43
2017-08-28T20:26:25.009Z,10.20
2017-08-28T20:28:53.266Z,10.40
2017-08-28T20:31:21.508Z,9.90
2017-08-28T20:33:49.756Z,10.40
2017-08-28T20:36:18.756Z,9.80
2017-08-28T20:38:47.008Z,9.07
2017-08-28T20:41:15.235Z,9.80
2017-08-28T20:43:43.481Z,9.90
2017-08-28T20:46:12.476Z,9.13
2017-08-28T20:48:40.724Z,8.73
2017-08-28T20:51:08.956Z,9.53
2017-08-28T20:53:37.977Z,8.37
2017-08-28T20:56:06.968Z,10.53
2017-08-28T20:58:35.217Z,9.10
2017-08-28T21:01:03.468Z,10.00
2017-08-28T21:03:31.717Z,8.67
2017-08-28T21:05:59.957Z,8.87
2017-08-28T21:08:28.200Z,9.70
2017-08-28T21:10:56.540Z,7.83
2017-08-28T21:13:24.757Z,9.10
2017-08-28T21:15:52.992Z,9.90
2017-08-28T21:18:21.248Z,11.90
2017-08-28T21:20:49.480Z,8.40
2017-08-28T21:23:17.704Z,8.90
2017-08-28T21:25:46.803Z,9.13
2017-08-28T21:28:15.867Z,7.90
2017-08-28T21:30:44.136Z,8.30
2017-08-28T21:33:12.374Z,10.67
2017-08-28T21:35:40.620Z,12.07
2017-08-28T21:38:08.874Z,8.63
2017-08-28T21:40:37.124Z,8.27
2017-08-28T21:43:06.048Z,10.30
2017-08-28T21:45:34.356Z,9.43
2017-08-28T21:48:02.565Z,10.97
2017-08-28T21:50:30.808Z,9.17
2017-08-28T21:52:59.066Z,10.60
2017-08-28T21:55:27.296Z,9.23
2017-08-28T21:57:55.531Z,8.80
2017-08-28T22:00:24.537Z,9.80
2017-08-28T22:02:52.764Z,12.93
2017-08-28T22:05:21.017Z,9.10
2017-08-28T22:07:49.240Z,9.13
2017-08-28T22:10:17.498Z,8.10
2017-08-28T22:12:45.733Z,8.57
2017-08-28T22:15:13.980Z,9.10
2017-08-28T22:17:42.212Z,10.43
2017-08-28T22:20:10.473Z,11.83
2017-08-28T22:22:38.715Z,9.20
2017-08-28T22:25:06.972Z,8.37
2017-08-28T22:27:35.221Z,7.80
2017-08-28T22:30:03.451Z,8.70
2017-08-28T22:32:32.452Z,8.30
2017-08-28T22:35:00.692Z,8.20
2017-08-28T22:37:28.933Z,10.73
2017-08-28T22:39:57.173Z,8.63
2017-08-28T22:42:25.408Z,7.60
2017-08-28T22:44:53.633Z,7.30
2017-08-28T22:47:21.898Z,8.50
2017-08-28T22:49:50.124Z,7.63
2017-08-28T22:52:18.369Z,7.93
2017-08-28T22:54:46.632Z,9.90
2017-08-28T22:57:14.872Z,8.33
2017-08-28T22:59:43.946Z,7.60
2017-08-28T23:02:12.192Z,10.07
2017-08-28T23:04:40.432Z,7.80
2017-08-28T23:07:09.440Z,8.63
2017-08-28T23:09:37.672Z,8.43
2017-08-28T23:12:05.936Z,7.67
2017-08-28T23:14:34.171Z,8.00
2017-08-28T23:17:02.426Z,8.20
2017-08-28T23:19:30.658Z,8.50
2017-08-28T23:21:58.911Z,10.27
2017-08-28T23:24:27.145Z,10.90
2017-08-28T23:26:55.441Z,8.43
2017-08-28T23:29:23.670Z,9.03
2017-08-28T23:31:51.909Z,8.60
2017-08-28T23:34:20.140Z,9.03
2017-08-28T23:36:48.372Z,11.17
2017-08-28T23:39:16.619Z,8.43
2017-08-28T23:41:44.852Z,10.37
2017-08-28T23:44:13.126Z,9.40
2017-08-28T23:46:41.344Z,7.73
2017-08-28T23:49:09.600Z,10.03
2017-08-28T23:51:37.840Z,6.73
2017-08-28T23:54:06.140Z,7.23
2017-08-28T23:56:34.341Z,10.30
2017-08-28T23:59:02.585Z,7.57
